Time;durP1;ratioP1;P1;durP2;ratioP2;P2;SDS_P1;SDS_P2;PMS_P1;PMS_P2;Temp;Humidity;BMP_temperature;BMP_pressure;BME280_temperature;BME280_humidity;BME280_pressure;Samples;Min_cycle;Max_cycle;Signal;HPM_P1;HPM_P2
2022/08/24 00:01:07;;;;;;;5.60;4.28;;;;;;;24.90;53.92;101660.81;4963617;28;20031;-73
2022/08/24 00:03:34;;;;;;;6.22;4.25;;;;;;;24.87;54.14;101655.78;4972374;28;20035;-73
2022/08/24 00:05:59;;;;;;;6.32;4.50;;;;;;;24.90;54.11;101658.16;4975971;28;20076;-71
2022/08/24 00:08:25;;;;;;;6.15;4.13;;;;;;;24.87;54.16;101647.78;4972235;28;20042;-72
2022/08/24 00:10:51;;;;;;;6.45;4.35;;;;;;;24.88;53.86;101648.63;4970560;28;20038;-72
2022/08/24 00:13:16;;;;;;;5.95;4.38;;;;;;;24.85;54.15;101649.78;4976627;28;20068;-73
2022/08/24 00:15:44;;;;;;;6.15;4.93;;;;;;;24.87;53.88;101655.78;4979206;28;20066;-72
2022/08/24 00:18:10;;;;;;;6.65;4.80;;;;;;;24.81;53.92;101657.22;4969575;28;20114;-70
2022/08/24 00:20:36;;;;;;;7.28;4.95;;;;;;;24.84;54.31;101664.09;4963592;28;20045;-71
2022/08/24 00:23:02;;;;;;;7.60;5.10;;;;;;;24.86;54.29;101670.09;4980899;28;20065;-72
2022/08/24 00:25:28;;;;;;;6.30;4.82;;;;;;;24.85;53.93;101664.91;4977551;28;20061;-75
2022/08/24 00:27:53;;;;;;;6.53;4.60;;;;;;;24.83;54.29;101661.56;4975280;28;20035;-72
2022/08/24 00:30:20;;;;;;;6.80;4.55;;;;;;;24.82;54.45;101660.75;4968728;28;20219;-73
2022/08/24 00:32:47;;;;;;;6.25;4.38;;;;;;;24.79;54.30;101666.38;4972879;28;20089;-74
2022/08/24 00:35:17;;;;;;;5.85;4.38;;;;;;;24.80;54.31;101665.38;4972542;28;20121;-72
2022/08/24 00:37:43;;;;;;;5.78;4.43;;;;;;;24.78;54.23;101670.88;4971866;28;20043;-72
2022/08/24 00:40:13;;;;;;;6.47;4.72;;;;;;;24.78;54.18;101670.88;4974661;28;20034;-73
2022/08/24 00:42:39;;;;;;;6.63;4.75;;;;;;;24.78;54.50;101670.00;4972804;28;20049;-73
2022/08/24 00:45:07;;;;;;;6.18;5.32;;;;;;;24.78;54.55;101676.22;4972212;28;20046;-74
2022/08/24 00:47:43;;;;;;;8.15;5.10;;;;;;;24.78;54.30;101670.88;4974667;28;20383;-72
2022/08/24 00:50:21;;;;;;;7.60;5.18;;;;;;;24.77;54.70;101673.69;4973498;28;20093;-72
2022/08/24 00:52:56;;;;;;;6.22;4.85;;;;;;;24.75;54.37;101672.97;4987055;28;20121;-71
2022/08/24 00:55:29;;;;;;;6.03;4.20;;;;;;;24.75;54.07;101668.50;4972232;28;20038;-71
2022/08/24 00:57:58;;;;;;;6.40;5.07;;;;;;;24.75;54.51;101670.31;4969999;28;20026;-73
2022/08/24 01:00:33;;;;;;;6.80;4.53;;;;;;;24.71;54.25;101669.78;4973125;28;20034;-72
2022/08/24 01:03:03;;;;;;;6.65;4.88;;;;;;;24.71;54.51;101669.78;4972372;28;20031;-73
2022/08/24 01:05:33;;;;;;;7.40;5.10;;;;;;;24.73;54.50;101674.97;4971625;28;20034;-72
2022/08/24 01:08:00;;;;;;;7.00;5.40;;;;;;;24.75;54.15;101670.31;4973546;28;20031;-74
2022/08/24 01:10:31;;;;;;;7.90;5.07;;;;;;;24.66;54.21;101664.06;4973019;28;20030;-71
2022/08/24 01:13:02;;;;;;;6.43;4.55;;;;;;;24.73;54.46;101672.28;4973439;28;20440;-71
2022/08/24 01:15:30;;;;;;;6.25;5.38;;;;;;;24.71;54.63;101674.28;4970392;28;20538;-73
2022/08/24 01:20:45;;;;;;;6.05;4.57;;;;;;;24.69;54.24;101668.25;4979402;28;20049;-73
2022/08/24 01:23:27;;;;;;;7.07;4.97;;;;;;;24.68;54.56;101664.75;4973871;28;20094;-71
2022/08/24 01:25:52;;;;;;;6.15;5.15;;;;;;;24.69;54.32;101670.91;4970482;28;20185;-73
2022/08/24 01:28:20;;;;;;;6.40;5.50;;;;;;;24.69;54.25;101674.44;4974583;28;20070;-72
2022/08/24 01:30:45;;;;;;;6.60;4.63;;;;;;;24.68;54.16;101675.41;4976715;28;20066;-72
2022/08/24 01:33:23;;;;;;;7.15;5.63;;;;;;;24.64;54.47;101671.34;4972821;28;20077;-72
2022/08/24 01:35:49;;;;;;;6.32;5.10;;;;;;;24.63;54.25;101669.69;4970412;28;20142;-72
2022/08/24 01:38:15;;;;;;;6.97;5.32;;;;;;;24.64;54.53;101668.69;4970798;28;20061;-71
2022/08/24 01:40:52;;;;;;;6.40;5.22;;;;;;;24.59;54.65;101658.50;4972689;28;20082;-75
2022/08/24 01:43:17;;;;;;;5.63;4.82;;;;;;;24.64;54.29;101666.00;4974242;28;20023;-71
2022/08/24 01:45:43;;;;;;;5.90;4.73;;;;;;;24.62;54.41;101663.53;4971365;28;20035;-71
2022/08/24 01:48:09;;;;;;;7.47;5.60;;;;;;;24.59;54.00;101655.81;4971843;28;20751;-72
2022/08/24 01:50:34;;;;;;;6.20;5.28;;;;;;;24.62;54.54;101662.66;4976156;28;20196;-71
2022/08/24 01:53:03;;;;;;;7.03;5.40;;;;;;;24.57;54.40;101652.44;4974685;28;20486;-74
2022/08/24 01:55:29;;;;;;;7.57;5.63;;;;;;;24.59;54.36;101655.81;4968982;28;20037;-71
2022/08/24 01:57:54;;;;;;;6.50;5.55;;;;;;;24.55;54.74;101657.06;4964524;28;20030;-71
2022/08/24 02:00:20;;;;;;;6.35;5.07;;;;;;;24.57;54.62;101662.28;4969223;28;20122;-72
2022/08/24 02:02:46;;;;;;;7.20;5.70;;;;;;;24.57;54.73;101663.09;4969592;28;20467;-73
2022/08/24 02:05:13;;;;;;;7.50;5.60;;;;;;;24.58;54.70;101661.31;4977683;28;20392;-74
2022/08/24 02:07:39;;;;;;;7.75;6.10;;;;;;;24.58;54.38;101661.31;4967814;28;20034;-73
2022/08/24 02:10:06;;;;;;;7.18;5.95;;;;;;;24.60;54.51;101661.97;4973549;28;20479;-76
2022/08/24 02:12:34;;;;;;;6.80;5.40;;;;;;;24.55;54.41;101650.91;4970904;28;20451;-73
2022/08/24 02:15:01;;;;;;;6.38;5.60;;;;;;;24.55;54.52;101657.06;4970942;28;20027;-72
2022/08/24 02:17:27;;;;;;;7.20;5.75;;;;;;;24.52;54.65;101657.34;4973966;28;20038;-72
2022/08/24 02:19:52;;;;;;;6.88;5.20;;;;;;;24.57;54.84;101663.09;4972980;28;20031;-72
2022/08/24 02:22:18;;;;;;;7.47;5.95;;;;;;;24.55;54.53;101661.56;4971302;28;20036;-73
2022/08/24 02:24:43;;;;;;;6.60;5.30;;;;;;;24.53;54.35;101661.72;4982274;28;20422;-75
2022/08/24 02:27:09;;;;;;;6.57;5.15;;;;;;;24.52;54.52;101665.34;4975852;28;20097;-72
2022/08/24 02:29:34;;;;;;;7.13;5.47;;;;;;;24.49;54.48;101670.97;4975446;28;20031;-76
2022/08/24 02:32:00;;;;;;;6.18;4.82;;;;;;;24.51;54.63;101673.50;4980430;28;20256;-72
2022/08/24 02:34:25;;;;;;;8.45;5.65;;;;;;;24.51;54.43;101676.16;4968164;28;20121;-73
2022/08/24 02:36:52;;;;;;;5.97;4.95;;;;;;;24.48;54.62;101671.94;4973693;28;20455;-73
2022/08/24 02:39:17;;;;;;;6.78;4.72;;;;;;;24.50;54.36;101680.66;4972185;28;20042;-72
2022/08/24 02:41:43;;;;;;;7.65;5.40;;;;;;;24.45;54.51;101680.25;4970140;28;20038;-73
2022/08/24 02:44:08;;;;;;;6.00;4.47;;;;;;;24.49;54.76;101681.63;4980119;28;20034;-75
2022/08/24 02:46:34;;;;;;;6.57;5.18;;;;;;;24.49;54.69;101681.63;4992196;28;20291;-71
2022/08/24 02:48:59;;;;;;;6.57;5.30;;;;;;;24.48;54.62;101676.44;4975354;28;20038;-73
2022/08/24 02:51:30;;;;;;;7.75;5.72;;;;;;;24.46;54.25;101676.59;4972963;28;20031;-71
2022/08/24 02:53:57;;;;;;;7.20;5.13;;;;;;;24.44;54.45;101668.75;4982460;28;20370;-71
2022/08/24 02:56:23;;;;;;;7.38;5.53;;;;;;;24.45;54.53;101677.59;4970919;28;20029;-72
2022/08/24 02:58:48;;;;;;;5.75;4.82;;;;;;;24.47;54.39;101680.09;4970630;28;20042;-71
2022/08/24 03:01:14;;;;;;;7.50;5.25;;;;;;;24.47;54.21;101680.94;4978751;28;20145;-75
2022/08/24 03:03:40;;;;;;;6.82;5.35;;;;;;;24.44;54.26;101679.41;4978191;28;20121;-71
2022/08/24 03:06:06;;;;;;;6.65;5.20;;;;;;;24.44;54.17;101678.56;4972680;28;20035;-72
2022/08/24 03:08:32;;;;;;;8.27;5.47;;;;;;;24.47;54.56;101675.63;4978881;28;20042;-71
2022/08/24 03:10:59;;;;;;;7.97;5.20;;;;;;;24.44;54.42;101678.56;4980344;28;20029;-71
2022/08/24 03:13:26;;;;;;;7.45;5.68;;;;;;;24.43;54.28;101669.75;4971076;28;20026;-71
2022/08/24 03:15:52;;;;;;;7.13;6.03;;;;;;;24.45;54.48;101670.44;4970755;28;20026;-72
2022/08/24 03:18:18;;;;;;;8.55;5.63;;;;;;;24.44;54.25;101673.25;4977802;28;20035;-74
2022/08/24 03:20:43;;;;;;;6.13;5.20;;;;;;;24.41;54.53;101674.38;4971013;28;20062;-72
2022/08/24 03:23:08;;;;;;;7.28;5.18;;;;;;;24.41;54.07;101674.38;4978590;28;20057;-73
2022/08/24 03:25:34;;;;;;;6.87;5.10;;;;;;;24.40;54.25;101666.53;4972343;28;20047;-72
2022/08/24 03:27:59;;;;;;;6.37;5.40;;;;;;;24.41;54.30;101674.38;4970887;28;20319;-72
2022/08/24 03:30:24;;;;;;;6.13;5.35;;;;;;;24.36;54.07;101662.50;4978796;28;20287;-72
2022/08/24 03:32:50;;;;;;;6.85;5.57;;;;;;;24.41;54.33;101671.69;4972790;28;20031;-72
2022/08/24 03:35:16;;;;;;;6.70;5.78;;;;;;;24.39;54.25;101670.19;4976816;28;20030;-72
2022/08/24 03:37:42;;;;;;;8.45;5.93;;;;;;;24.38;54.23;101664.00;4980731;28;20824;-74
2022/08/24 03:40:09;;;;;;;6.57;5.78;;;;;;;24.38;54.36;101665.84;4971064;28;20097;-73
2022/08/24 03:42:34;;;;;;;6.78;5.53;;;;;;;24.41;54.21;101665.53;4970855;28;20383;-75
2022/08/24 03:44:59;;;;;;;6.87;5.53;;;;;;;24.37;54.56;101656.16;4977309;28;20045;-72
2022/08/24 03:47:25;;;;;;;7.63;6.10;;;;;;;24.38;54.24;101661.34;4978342;28;20312;-71
2022/08/24 03:49:50;;;;;;;7.30;5.43;;;;;;;24.38;54.64;101661.34;4979107;28;20263;-73
2022/08/24 03:52:16;;;;;;;6.55;5.43;;;;;;;24.40;54.21;101669.19;4969371;28;20490;-72
2022/08/24 03:54:41;;;;;;;6.60;5.70;;;;;;;24.36;54.26;101668.66;4967548;28;20109;-71
2022/08/24 03:57:07;;;;;;;7.20;5.63;;;;;;;24.37;54.50;101667.66;4979145;28;20022;-74
2022/08/24 03:59:32;;;;;;;7.15;6.38;;;;;;;24.35;54.49;101671.44;4969823;28;20066;-72
2022/08/24 04:01:57;;;;;;;6.65;5.35;;;;;;;24.37;54.08;101672.13;4974155;28;20037;-72
2022/08/24 04:04:23;;;;;;;7.80;5.88;;;;;;;24.36;54.13;101671.31;4968772;28;20042;-74
2022/08/24 04:06:49;;;;;;;6.53;5.72;;;;;;;24.35;54.35;101674.94;4963455;28;20019;-73
2022/08/24 04:09:15;;;;;;;7.15;5.85;;;;;;;24.33;54.42;101668.09;4967254;28;20382;-71
2022/08/24 04:11:42;;;;;;;7.25;5.18;;;;;;;24.34;54.66;101675.94;4974523;28;20031;-71
2022/08/24 04:14:08;;;;;;;6.55;4.93;;;;;;;24.35;54.51;101671.44;4967671;28;20030;-71
2022/08/24 04:16:33;;;;;;;7.03;5.35;;;;;;;24.31;54.05;101672.72;4982666;28;20030;-73
2022/08/24 04:18:59;;;;;;;6.55;5.45;;;;;;;24.30;54.36;101677.22;4982731;28;20053;-73
2022/08/24 04:21:30;;;;;;;7.25;4.90;;;;;;;24.32;54.24;101677.06;4975017;28;20080;-74
2022/08/24 04:23:56;;;;;;;7.03;5.50;;;;;;;24.30;54.50;101676.38;4980849;28;20129;-70
2022/08/24 04:26:24;;;;;;;7.18;5.47;;;;;;;24.32;54.03;101680.56;4977940;28;20741;-73
2022/08/24 04:28:50;;;;;;;6.40;5.18;;;;;;;24.31;53.85;101678.03;4975728;28;20031;-72
2022/08/24 04:31:17;;;;;;;6.40;5.03;;;;;;;24.29;53.90;101677.34;4970413;28;20042;-72
2022/08/24 04:33:43;;;;;;;6.88;5.78;;;;;;;24.30;53.94;101681.72;4964718;28;20464;-72
2022/08/24 04:36:09;;;;;;;6.60;5.47;;;;;;;24.29;54.26;101683.50;4962800;28;20113;-72
2022/08/24 04:38:35;;;;;;;6.78;5.30;;;;;;;24.24;53.78;101675.13;4964907;28;20078;-72
2022/08/24 04:41:04;;;;;;;7.10;5.60;;;;;;;24.29;53.99;101688.00;4974726;28;20061;-71
2022/08/24 04:43:29;;;;;;;6.57;5.50;;;;;;;24.24;54.02;101678.66;4970583;28;20325;-72
2022/08/24 04:45:54;;;;;;;7.45;5.20;;;;;;;24.29;53.70;101691.50;4993025;28;20423;-72
2022/08/24 04:48:20;;;;;;;6.80;6.05;;;;;;;24.25;54.00;101690.13;4971469;28;20081;-73
2022/08/24 04:50:45;;;;;;;7.30;5.40;;;;;;;24.23;53.87;101686.78;4961539;28;20038;-73
2022/08/24 04:53:12;;;;;;;6.20;5.00;;;;;;;24.22;54.07;101683.25;4964495;28;20268;-71
2022/08/24 04:55:47;;;;;;;7.20;5.82;;;;;;;24.21;54.25;101689.59;4974181;28;20031;-74
2022/08/24 04:58:14;;;;;;;6.93;5.38;;;;;;;24.23;54.21;101697.44;4964177;28;20046;-72
2022/08/24 05:00:40;;;;;;;6.53;5.38;;;;;;;24.22;54.10;101687.75;4964841;28;20054;-72
2022/08/24 05:03:05;;;;;;;7.50;5.55;;;;;;;24.24;54.28;101691.09;4980623;28;20068;-73
2022/08/24 05:05:31;;;;;;;7.15;5.82;;;;;;;24.24;54.07;101702.63;4977508;28;20039;-75
2022/08/24 05:07:56;;;;;;;6.72;4.93;;;;;;;24.25;53.83;101700.78;4963015;28;20034;-74
2022/08/24 05:10:22;;;;;;;6.50;5.65;;;;;;;24.23;53.57;101684.94;4965540;28;20030;-73
2022/08/24 05:12:47;;;;;;;6.88;5.75;;;;;;;24.25;54.06;101693.63;4980446;28;20038;-72
2022/08/24 05:15:13;;;;;;;6.05;4.97;;;;;;;24.23;53.69;101692.94;4978189;28;20046;-73
2022/08/24 05:17:40;;;;;;;8.20;5.10;;;;;;;24.22;53.79;101696.56;4972526;28;20042;-72
2022/08/24 05:20:07;;;;;;;6.35;5.47;;;;;;;24.25;54.14;101698.13;4962625;28;20027;-71
2022/08/24 05:22:33;;;;;;;6.85;5.50;;;;;;;24.21;54.03;101689.59;4963624;28;20033;-69
2022/08/24 05:24:58;;;;;;;9.43;8.05;;;;;;;24.21;54.35;101700.25;4981986;28;20038;-68
2022/08/24 05:27:23;;;;;;;14.38;12.48;;;;;;;23.98;55.37;101706.88;4981253;28;20066;-69
2022/08/24 05:29:52;;;;;;;15.83;13.77;;;;;;;23.70;56.77;101704.91;4981937;28;20045;-70
2022/08/24 05:32:18;;;;;;;18.35;16.45;;;;;;;23.45;58.06;101714.28;4974101;28;20261;-70
2022/08/24 05:34:44;;;;;;;17.38;13.95;;;;;;;23.25;59.02;101712.59;4972527;28;20459;-68
2022/08/24 05:37:09;;;;;;;15.77;13.20;;;;;;;23.06;59.29;101711.53;4980516;28;20387;-67
2022/08/24 05:39:34;;;;;;;14.10;12.65;;;;;;;22.94;59.92;101715.28;4962355;28;20035;-68
2022/08/24 05:42:00;;;;;;;15.00;13.45;;;;;;;22.79;61.34;101710.34;4968476;28;20518;-69
2022/08/24 05:44:26;;;;;;;18.20;16.10;;;;;;;22.70;62.07;101718.28;4978250;28;20034;-70
2022/08/24 05:46:52;;;;;;;17.90;16.00;;;;;;;22.53;62.32;101709.97;4965924;28;20065;-70
2022/08/24 05:49:18;;;;;;;16.00;14.40;;;;;;;22.42;63.34;101718.84;4970455;28;20034;-70
2022/08/24 05:51:43;;;;;;;17.00;15.30;;;;;;;22.30;63.51;101708.44;4964805;28;20379;-69
2022/08/24 05:54:12;;;;;;;17.83;15.97;;;;;;;22.17;64.56;101711.28;4971311;28;20030;-71
2022/08/24 05:56:37;;;;;;;18.30;15.30;;;;;;;22.09;64.91;101722.53;4972539;28;20707;-70
2022/08/24 05:59:03;;;;;;;19.10;16.38;;;;;;;21.99;65.11;101713.69;4972769;28;20138;-71
2022/08/24 06:01:28;;;;;;;17.27;15.35;;;;;;;21.91;65.52;101711.69;4975293;28;20034;-70
2022/08/24 06:03:55;;;;;;;18.33;16.15;;;;;;;21.88;65.72;101715.41;4984862;28;20042;-70
2022/08/24 06:06:22;;;;;;;16.92;15.13;;;;;;;21.83;66.09;101712.31;4985204;28;20038;-70
2022/08/24 06:08:51;;;;;;;19.13;16.13;;;;;;;21.87;66.23;101719.06;4984827;28;20038;-70
2022/08/24 06:11:24;;;;;;;19.88;16.75;;;;;;;21.83;66.61;101719.44;4966411;28;20070;-70
2022/08/24 06:13:54;;;;;;;18.30;16.20;;;;;;;21.81;67.12;101724.88;4974348;28;20355;-70
2022/08/24 06:16:21;;;;;;;18.58;16.27;;;;;;;21.81;67.28;101724.00;4973024;28;20085;-71
2022/08/24 06:18:48;;;;;;;18.50;16.50;;;;;;;21.84;67.25;101732.56;4983746;28;20546;-71
2022/08/24 06:21:17;;;;;;;19.58;17.42;;;;;;;21.82;67.42;101731.84;4977081;28;20026;-69
2022/08/24 06:23:43;;;;;;;18.67;16.77;;;;;;;21.86;67.43;101732.44;4971986;28;20049;-70
2022/08/24 06:28:55;;;;;;;22.10;17.88;;;;;;;21.90;67.87;101731.22;4975605;28;20081;-69
2022/08/24 06:31:23;;;;;;;19.38;17.42;;;;;;;21.95;67.37;101730.81;4971937;28;20352;-69
2022/08/24 06:33:48;;;;;;;18.60;16.70;;;;;;;21.97;67.74;101732.41;4972056;28;20084;-71
2022/08/24 06:36:13;;;;;;;21.27;17.48;;;;;;;22.04;67.91;101743.34;4975869;28;20911;-69
2022/08/24 06:38:39;;;;;;;21.27;18.17;;;;;;;22.08;67.82;101745.59;4976349;28;20049;-69
2022/08/24 06:41:04;;;;;;;21.05;18.58;;;;;;;22.15;67.71;101737.13;4975532;28;20268;-68
2022/08/24 06:43:30;;;;;;;22.73;18.55;;;;;;;22.18;67.60;101735.03;4972828;28;20034;-68
2022/08/24 06:45:56;;;;;;;21.60;19.13;;;;;;;22.22;67.39;101744.44;4978327;28;20042;-69
2022/08/24 06:48:22;;;;;;;20.33;18.17;;;;;;;22.27;67.63;101750.19;4973588;28;20119;-70
2022/08/24 06:50:48;;;;;;;22.67;17.98;;;;;;;22.34;67.40;101747.88;4972349;28;20988;-70
2022/08/24 06:53:13;;;;;;;23.90;17.42;;;;;;;22.41;66.81;101745.53;4976716;28;20030;-71
2022/08/24 06:55:47;;;;;;;19.55;15.95;;;;;;;22.50;66.86;101749.25;4972020;28;20027;-69
2022/08/24 06:58:13;;;;;;;;;;;;;;;22.58;66.71;101747.59;4976724;28;20537;-71
2022/08/24 07:00:38;;;;;;;19.38;15.10;;;;;;;22.62;65.39;101746.38;4972593;28;20077;-69
2022/08/24 07:03:04;;;;;;;17.38;14.60;;;;;;;22.73;65.10;101749.91;4970410;28;20030;-69
2022/08/24 07:05:29;;;;;;;18.13;13.77;;;;;;;22.82;65.24;101762.38;4972766;28;20054;-68
2022/08/24 07:07:54;;;;;;;20.40;14.10;;;;;;;22.81;64.50;101744.75;4977786;28;20076;-70
2022/08/24 07:10:19;;;;;;;15.47;12.30;;;;;;;22.97;64.60;101757.53;4972643;28;20304;-68
2022/08/24 07:12:45;;;;;;;17.00;12.50;;;;;;;23.05;63.86;101759.53;4971626;28;21365;-71
2022/08/24 07:15:10;;;;;;;15.05;13.00;;;;;;;23.13;63.62;101759.72;4989938;28;20034;-68
2022/08/24 07:17:36;;;;;;;15.02;11.52;;;;;;;23.11;62.87;101753.69;4975701;28;20498;-71
2022/08/24 07:20:01;;;;;;;16.33;12.48;;;;;;;23.23;62.28;101760.59;4972803;28;20122;-68
2022/08/24 07:22:27;;;;;;;14.18;11.27;;;;;;;23.28;62.18;101762.84;4975921;28;20375;-71
2022/08/24 07:24:52;;;;;;;13.93;11.35;;;;;;;23.38;62.05;101769.00;4973502;28;20394;-72
2022/08/24 07:27:17;;;;;;;14.17;12.53;;;;;;;23.43;61.50;101769.47;4975960;28;20082;-69
2022/08/24 07:29:42;;;;;;;14.57;12.93;;;;;;;23.49;61.66;101770.72;4980846;28;20272;-71
2022/08/24 07:32:09;;;;;;;14.40;12.90;;;;;;;23.48;61.21;101753.94;4969911;28;20733;-71
2022/08/24 07:34:34;;;;;;;15.18;12.52;;;;;;;23.53;61.41;101767.66;4978108;28;20426;-69
2022/08/24 07:37:00;;;;;;;13.10;11.52;;;;;;;23.51;61.01;101766.94;4983429;28;20038;-70
2022/08/24 07:39:26;;;;;;;12.60;11.20;;;;;;;23.53;61.19;101767.66;4983538;28;20455;-70
2022/08/24 07:41:52;;;;;;;15.30;11.70;;;;;;;23.57;61.14;101764.72;4969799;28;20031;-76
2022/08/24 07:44:18;;;;;;;12.90;11.32;;;;;;;23.67;61.46;101765.53;4975697;28;20041;-73
2022/08/24 07:46:43;;;;;;;12.82;10.77;;;;;;;23.70;60.92;101757.28;4975520;28;20137;-72
2022/08/24 07:49:11;;;;;;;11.18;9.98;;;;;;;23.75;60.86;101765.72;4965798;28;20145;-73
2022/08/24 07:51:37;;;;;;;11.68;10.07;;;;;;;23.82;60.48;101769.47;4969203;28;20085;-75
2022/08/24 07:54:03;;;;;;;12.43;10.25;;;;;;;23.88;60.46;101768.13;4981499;28;20125;-76
2022/08/24 07:56:29;;;;;;;11.30;9.85;;;;;;;23.96;59.84;101770.06;4967694;28;20867;-74
2022/08/24 07:58:54;;;;;;;11.38;9.80;;;;;;;24.03;59.73;101764.03;4963542;28;20030;-73
2022/08/24 08:01:21;;;;;;;12.05;10.20;;;;;;;24.09;59.67;101763.47;4980117;28;20085;-75
2022/08/24 08:03:46;;;;;;;12.05;9.50;;;;;;;24.19;59.42;101762.63;4975374;28;20027;-74
2022/08/24 08:06:12;;;;;;;11.18;9.18;;;;;;;24.26;59.03;101761.91;4970331;28;20035;-70
2022/08/24 08:08:39;;;;;;;12.63;9.45;;;;;;;24.26;58.40;101755.75;4967564;28;20089;-73
2022/08/24 08:11:05;;;;;;;10.02;8.40;;;;;;;24.33;58.67;101767.50;4964587;28;20026;-74
2022/08/24 08:13:31;;;;;;;10.95;7.75;;;;;;;24.41;58.25;101772.94;4974034;28;20049;-75
2022/08/24 08:15:58;;;;;;;9.45;7.10;;;;;;;24.47;57.37;101762.69;4980046;28;20059;-75
2022/08/24 08:18:24;;;;;;;11.15;6.57;;;;;;;24.53;57.04;101767.44;4981440;28;20038;-76
2022/08/24 08:20:49;;;;;;;9.75;6.90;;;;;;;24.53;56.74;101770.97;4969281;28;20035;-75
2022/08/24 08:26:00;;;;;;;9.35;6.55;;;;;;;24.63;56.66;101776.28;4974127;28;20061;-75
2022/08/24 08:28:26;;;;;;;7.35;5.93;;;;;;;24.70;56.57;101768.53;4963292;28;20031;-76
2022/08/24 08:30:52;;;;;;;9.25;6.82;;;;;;;24.75;56.59;101779.59;4974831;28;20031;-72
2022/08/24 08:33:17;;;;;;;8.48;6.88;;;;;;;24.78;56.23;101772.16;4969024;28;20129;-73
2022/08/24 08:35:43;;;;;;;7.80;6.05;;;;;;;24.83;56.02;101769.03;4970614;28;20109;-72
2022/08/24 08:38:09;;;;;;;8.10;6.32;;;;;;;24.87;56.08;101772.28;4969169;28;20042;-73
2022/08/24 08:40:43;;;;;;;10.68;5.75;;;;;;;24.91;55.53;101770.97;4980727;28;20034;-74
2022/08/24 08:43:38;;;;;;;7.97;6.50;;;;;;;24.90;55.65;101766.63;4970988;28;20038;-75
2022/08/24 08:46:22;;;;;;;;;;;;;;;24.90;55.93;101769.31;4968336;28;20039;-76
2022/08/24 08:49:11;;;;;;;8.68;5.97;;;;;;;24.93;55.54;101769.84;4971190;28;19909;-73
2022/08/24 08:52:23;;;;;;;8.77;6.18;;;;;;;24.96;55.59;101774.88;4962182;28;20057;-73
2022/08/24 08:55:16;;;;;;;8.50;5.85;;;;;;;25.02;55.36;101780.59;4961793;28;20146;-75
2022/08/24 08:58:07;;;;;;;7.35;5.85;;;;;;;25.01;55.47;101773.59;4961984;28;20045;-71
2022/08/24 09:00:51;;;;;;;6.75;5.75;;;;;;;25.05;55.45;101780.31;4975349;28;20374;-72
2022/08/24 09:03:36;;;;;;;;;;;;;;;25.02;55.37;101773.44;4969299;28;20073;-73
2022/08/24 09:06:31;;;;;;;10.40;5.28;;;;;;;25.04;55.37;101776.81;4972241;28;19910;-73
2022/08/24 09:09:05;;;;;;;6.57;5.30;;;;;;;25.01;54.91;101774.44;4973580;28;20049;-73
2022/08/24 09:11:40;;;;;;;6.63;4.88;;;;;;;25.03;55.00;101776.97;4962250;28;20035;-72
2022/08/24 09:14:53;;;;;;;6.70;4.88;;;;;;;25.04;55.05;101782.16;4968512;28;20116;-72
2022/08/24 09:17:40;;;;;;;7.60;4.47;;;;;;;25.07;55.15;101783.66;4923483;29;20039;-74
2022/08/24 09:20:21;;;;;;;6.10;4.55;;;;;;;25.10;54.81;101778.03;4964343;28;20034;-72
2022/08/24 09:22:54;;;;;;;10.65;4.72;;;;;;;25.10;54.77;101780.69;4969787;28;20043;-71
2022/08/24 09:25:36;;;;;;;6.45;4.55;;;;;;;25.13;54.60;101786.59;4961532;28;20549;-70
2022/08/24 09:28:19;;;;;;;5.35;3.90;;;;;;;25.12;54.61;101778.75;4966425;28;20760;-72
2022/08/24 09:31:13;;;;;;;6.40;4.35;;;;;;;25.09;54.70;101779.03;4974149;28;20034;-73
2022/08/24 09:33:47;;;;;;;5.47;3.95;;;;;;;25.13;54.74;101781.25;4984911;28;20490;-71
2022/08/24 09:36:26;;;;;;;6.45;3.60;;;;;;;25.13;54.68;101775.94;4967897;28;20084;-71
2022/08/24 09:39:36;;;;;;;6.00;3.72;;;;;;;25.16;54.34;101777.44;4977114;28;20483;-72
2022/08/24 09:42:34;;;;;;;5.40;3.55;;;;;;;25.18;54.11;101778.13;4954514;28;20077;-71
2022/08/24 09:45:30;;;;;;;5.93;3.65;;;;;;;25.20;54.16;101778.84;4981125;28;20050;-72
2022/08/24 09:47:58;;;;;;;5.32;3.30;;;;;;;25.20;54.25;101773.50;4984610;28;20118;-74
2022/08/24 09:50:48;;;;;;;5.30;3.67;;;;;;;25.22;54.21;101776.03;4984638;28;20088;-71
2022/08/24 09:53:24;;;;;;;5.20;3.40;;;;;;;25.22;54.16;101770.69;4964952;28;20082;-72
2022/08/24 09:56:23;;;;;;;6.47;3.45;;;;;;;25.20;53.43;101778.84;4978575;28;20042;-73
2022/08/24 09:59:21;;;;;;;4.50;3.00;;;;;;;25.18;53.90;101772.78;4971983;28;20035;-73
2022/08/24 10:02:34;;;;;;;4.50;2.83;;;;;;;25.21;53.71;101783.16;4967098;28;20061;-74
2022/08/24 10:05:17;;;;;;;5.28;2.97;;;;;;;25.26;53.71;101780.03;4969879;28;20057;-72
2022/08/24 10:07:54;;;;;;;4.30;2.90;;;;;;;25.31;53.55;101777.78;4964925;28;20046;-72
2022/08/24 10:10:28;;;;;;;4.38;2.70;;;;;;;25.32;53.39;101772.31;4970966;28;20045;-73
2022/08/24 10:13:09;;;;;;;6.20;2.80;;;;;;;25.30;53.37;101771.63;4965116;28;20030;-73
2022/08/24 10:15:50;;;;;;;4.57;2.70;;;;;;;25.33;53.36;101774.00;4979879;28;20034;-71
2022/08/24 10:18:44;;;;;;;4.82;2.63;;;;;;;25.32;53.22;101766.97;4964834;28;20088;-69
2022/08/24 10:21:47;;;;;;;3.97;2.40;;;;;;;25.35;53.36;101765.84;4972238;28;20041;-71
2022/08/24 10:24:37;;;;;;;3.95;2.35;;;;;;;25.37;53.35;101760.34;4970381;28;20037;-70
2022/08/24 10:27:03;;;;;;;5.25;2.70;;;;;;;25.38;53.25;101767.38;4983304;28;20507;-72
2022/08/24 10:29:59;;;;;;;3.63;2.42;;;;;;;25.37;52.81;101761.19;4982691;28;20088;-73
2022/08/24 10:32:44;;;;;;;3.60;2.22;;;;;;;25.33;53.03;101755.31;4976482;28;20030;-73
2022/08/24 10:35:19;;;;;;;4.75;2.28;;;;;;;25.32;52.66;101761.63;4970071;28;20043;-73
2022/08/24 10:41:42;;;;;;;3.70;2.30;;;;;;;25.30;53.31;101755.63;4973340;28;20049;-76
2022/08/24 10:44:29;;;;;;;3.90;2.20;;;;;;;25.33;52.84;101752.66;4973126;28;20642;-81
2022/08/24 10:47:18;;;;;;;5.55;2.60;;;;;;;25.30;53.11;101747.63;4976967;28;20360;-78
2022/08/24 10:50:24;;;;;;;3.85;2.20;;;;;;;25.33;52.85;101747.31;4982241;28;20383;-74
2022/08/24 10:52:49;;;;;;;6.88;2.50;;;;;;;25.36;53.19;101748.84;4978575;28;20054;-72
2022/08/24 10:55:15;;;;;;;5.03;2.03;;;;;;;25.40;53.39;101754.72;4976676;28;20177;-71
2022/08/24 10:58:23;;;;;;;4.00;2.30;;;;;;;25.45;53.21;101745.28;4974056;28;20396;-72
2022/08/24 11:00:48;;;;;;;3.65;2.20;;;;;;;25.50;53.44;101744.81;4966945;28;20035;-77
2022/08/24 11:03:20;;;;;;;4.07;2.15;;;;;;;25.53;52.98;101745.38;4976407;28;20109;-77
2022/08/24 11:05:51;;;;;;;3.78;2.00;;;;;;;25.56;53.03;101738.03;4976633;28;20471;-75
2022/08/24 11:08:26;;;;;;;3.72;2.20;;;;;;;25.52;53.01;101738.34;4963475;28;20039;-76
2022/08/24 11:11:13;;;;;;;4.57;1.98;;;;;;;25.52;52.78;101743.69;4966516;28;20381;-75
2022/08/24 11:13:59;;;;;;;4.28;2.40;;;;;;;25.50;52.94;101734.13;4970857;28;20065;-75
2022/08/24 11:16:32;;;;;;;5.60;2.40;;;;;;;25.50;52.95;101729.66;4981568;28;20085;-76
2022/08/24 11:19:00;;;;;;;5.63;2.60;;;;;;;25.50;53.00;101728.78;4980592;28;21119;-75
2022/08/24 11:21:44;;;;;;;4.10;2.10;;;;;;;25.54;52.91;101738.19;4962588;28;20383;-78
2022/08/24 11:24:24;;;;;;;;;;;;;;;25.52;53.10;101732.16;4979015;28;20035;-75
2022/08/24 11:27:03;;;;;;;3.72;2.00;;;;;;;25.57;53.05;101731.72;4928670;28;1043947;-74
2022/08/24 11:29:51;;;;;;;4.28;2.15;;;;;;;25.58;52.91;101733.38;4971575;28;20051;-72
2022/08/24 11:32:45;;;;;;;4.25;2.42;;;;;;;25.55;52.96;101721.19;4964166;28;20070;-74
2022/08/24 11:35:13;;;;;;;;;;;;;;;25.55;53.15;101726.53;4963477;28;20145;-75
2022/08/24 11:37:38;;;;;;;4.30;2.10;;;;;;;25.55;52.96;101725.66;4971794;28;19957;-78
2022/08/24 11:40:06;;;;;;;4.97;2.20;;;;;;;25.54;53.05;101719.50;4971025;28;20436;-76
2022/08/24 11:42:50;;;;;;;4.20;2.15;;;;;;;25.54;53.06;101727.50;4974731;28;20069;-82
2022/08/24 11:45:32;;;;;;;3.60;2.10;;;;;;;25.53;53.10;101718.69;4969131;28;20061;-84
2022/08/24 11:48:07;;;;;;;4.53;2.30;;;;;;;25.51;53.12;101714.47;4966477;28;20038;-81
2022/08/24 11:51:22;;;;;;;3.80;1.98;;;;;;;25.52;52.92;101714.31;4973611;28;20039;-81